sensor_id;sensor_type;location;lat;lon;timestamp;P1;P2;P0
72854;PMS7003;60991;51.278;22.550;2022-08-30T00:01:20;11.00;7.75;5.75
72854;PMS7003;60991;51.278;22.550;2022-08-30T00:02:53;13.75;11.00;8.00
72854;PMS7003;60991;51.278;22.550;2022-08-30T00:04:23;12.25;11.75;8.00
72854;PMS7003;60991;51.278;22.550;2022-08-30T00:05:54;10.75;10.75;7.00
72854;PMS7003;60991;51.278;22.550;2022-08-30T00:07:24;11.25;10.00;6.50
72854;PMS7003;60991;51.278;22.550;2022-08-30T00:08:55;12.00;9.75;7.25
72854;PMS7003;60991;51.278;22.550;2022-08-30T00:10:25;10.00;10.00;7.75
72854;PMS7003;60991;51.278;22.550;2022-08-30T00:11:57;9.25;8.00;6.25
72854;PMS7003;60991;51.278;22.550;2022-08-30T00:13:28;11.25;10.25;7.00
72854;PMS7003;60991;51.278;22.550;2022-08-30T00:14:58;10.00;10.00;7.25
72854;PMS7003;60991;51.278;22.550;2022-08-30T00:16:29;12.75;11.00;9.25
72854;PMS7003;60991;51.278;22.550;2022-08-30T00:18:00;8.75;8.75;7.00
72854;PMS7003;60991;51.278;22.550;2022-08-30T00:19:30;10.00;10.00;7.25
72854;PMS7003;60991;51.278;22.550;2022-08-30T00:21:01;11.50;11.00;7.25
72854;PMS7003;60991;51.278;22.550;2022-08-30T00:22:32;12.25;10.75;7.75
72854;PMS7003;60991;51.278;22.550;2022-08-30T00:24:03;10.00;10.00;8.00
72854;PMS7003;60991;51.278;22.550;2022-08-30T00:25:33;10.25;10.25;8.75
72854;PMS7003;60991;51.278;22.550;2022-08-30T00:27:04;12.25;10.00;8.25
72854;PMS7003;60991;51.278;22.550;2022-08-30T00:28:34;11.00;10.50;8.00
72854;PMS7003;60991;51.278;22.550;2022-08-30T00:30:05;10.75;9.25;7.25
72854;PMS7003;60991;51.278;22.550;2022-08-30T00:31:36;12.75;11.00;7.00
72854;PMS7003;60991;51.278;22.550;2022-08-30T00:33:07;12.25;12.25;9.00
72854;PMS7003;60991;51.278;22.550;2022-08-30T00:34:38;12.50;11.25;9.00
72854;PMS7003;60991;51.278;22.550;2022-08-30T00:36:08;12.00;10.50;7.00
72854;PMS7003;60991;51.278;22.550;2022-08-30T00:37:39;10.00;8.75;7.50
72854;PMS7003;60991;51.278;22.550;2022-08-30T00:39:10;8.50;8.50;6.00
72854;PMS7003;60991;51.278;22.550;2022-08-30T00:40:42;10.00;10.00;8.00
72854;PMS7003;60991;51.278;22.550;2022-08-30T00:42:14;9.25;9.25;6.00
72854;PMS7003;60991;51.278;22.550;2022-08-30T00:43:45;11.00;11.00;8.00
72854;PMS7003;60991;51.278;22.550;2022-08-30T00:45:21;9.25;9.25;8.00
72854;PMS7003;60991;51.278;22.550;2022-08-30T00:46:54;10.00;9.25;8.00
72854;PMS7003;60991;51.278;22.550;2022-08-30T00:48:24;13.00;10.50;8.25
72854;PMS7003;60991;51.278;22.550;2022-08-30T00:49:55;10.50;9.25;7.25
72854;PMS7003;60991;51.278;22.550;2022-08-30T00:51:26;12.00;10.50;7.25
72854;PMS7003;60991;51.278;22.550;2022-08-30T00:52:57;11.25;11.00;8.00
72854;PMS7003;60991;51.278;22.550;2022-08-30T00:54:30;10.50;9.25;8.00
72854;PMS7003;60991;51.278;22.550;2022-08-30T00:56:05;8.25;7.50;5.50
72854;PMS7003;60991;51.278;22.550;2022-08-30T00:57:36;10.25;9.25;7.00
72854;PMS7003;60991;51.278;22.550;2022-08-30T00:59:08;9.00;9.00;7.00
72854;PMS7003;60991;51.278;22.550;2022-08-30T01:00:38;10.75;10.75;8.50
72854;PMS7003;60991;51.278;22.550;2022-08-30T01:02:09;11.50;11.50;7.75
72854;PMS7003;60991;51.278;22.550;2022-08-30T01:03:40;13.25;11.00;8.00
72854;PMS7003;60991;51.278;22.550;2022-08-30T01:05:12;11.00;9.25;7.50
72854;PMS7003;60991;51.278;22.550;2022-08-30T01:06:43;9.75;8.75;7.25
72854;PMS7003;60991;51.278;22.550;2022-08-30T01:08:13;10.25;10.25;8.00
72854;PMS7003;60991;51.278;22.550;2022-08-30T01:09:44;10.50;10.00;7.00
72854;PMS7003;60991;51.278;22.550;2022-08-30T01:11:15;10.50;10.50;7.00
72854;PMS7003;60991;51.278;22.550;2022-08-30T01:12:49;11.00;9.25;7.00
72854;PMS7003;60991;51.278;22.550;2022-08-30T01:14:19;11.00;11.00;7.50
72854;PMS7003;60991;51.278;22.550;2022-08-30T01:15:50;9.25;8.75;7.00
72854;PMS7003;60991;51.278;22.550;2022-08-30T01:17:20;12.00;10.75;7.00
72854;PMS7003;60991;51.278;22.550;2022-08-30T01:18:52;11.50;10.00;8.25
72854;PMS7003;60991;51.278;22.550;2022-08-30T01:20:28;10.75;9.75;7.00
72854;PMS7003;60991;51.278;22.550;2022-08-30T01:24:24;9.75;9.75;7.25
72854;PMS7003;60991;51.278;22.550;2022-08-30T01:25:55;11.50;11.50;8.75
72854;PMS7003;60991;51.278;22.550;2022-08-30T01:27:26;10.25;10.00;7.00
72854;PMS7003;60991;51.278;22.550;2022-08-30T01:28:59;10.50;10.50;8.00
72854;PMS7003;60991;51.278;22.550;2022-08-30T01:30:34;11.00;11.00;7.75
72854;PMS7003;60991;51.278;22.550;2022-08-30T01:32:05;14.00;11.75;7.75
72854;PMS7003;60991;51.278;22.550;2022-08-30T01:33:36;11.00;8.25;6.00
72854;PMS7003;60991;51.278;22.550;2022-08-30T01:35:07;11.50;10.75;7.25
72854;PMS7003;60991;51.278;22.550;2022-08-30T01:36:38;12.00;9.25;7.00
72854;PMS7003;60991;51.278;22.550;2022-08-30T01:38:12;13.00;10.00;7.00
72854;PMS7003;60991;51.278;22.550;2022-08-30T01:39:45;10.75;10.75;8.25
72854;PMS7003;60991;51.278;22.550;2022-08-30T01:41:16;11.00;9.50;7.75
72854;PMS7003;60991;51.278;22.550;2022-08-30T01:42:49;12.00;11.00;8.00
72854;PMS7003;60991;51.278;22.550;2022-08-30T01:44:20;11.25;11.25;9.00
72854;PMS7003;60991;51.278;22.550;2022-08-30T01:45:50;11.25;11.25;8.25
72854;PMS7003;60991;51.278;22.550;2022-08-30T01:47:20;12.00;12.00;8.25
72854;PMS7003;60991;51.278;22.550;2022-08-30T01:48:51;11.50;9.25;7.25
72854;PMS7003;60991;51.278;22.550;2022-08-30T01:50:22;10.25;8.50;7.00
72854;PMS7003;60991;51.278;22.550;2022-08-30T01:51:53;10.00;9.00;6.25
72854;PMS7003;60991;51.278;22.550;2022-08-30T01:53:24;15.00;13.00;8.00
72854;PMS7003;60991;51.278;22.550;2022-08-30T01:54:55;10.75;10.25;7.25
72854;PMS7003;60991;51.278;22.550;2022-08-30T01:56:26;11.00;10.00;6.50
72854;PMS7003;60991;51.278;22.550;2022-08-30T01:57:57;10.50;10.50;8.00
72854;PMS7003;60991;51.278;22.550;2022-08-30T01:59:27;17.50;12.75;8.75
72854;PMS7003;60991;51.278;22.550;2022-08-30T02:00:58;9.75;9.25;6.50
72854;PMS7003;60991;51.278;22.550;2022-08-30T02:02:28;11.00;10.00;7.00
72854;PMS7003;60991;51.278;22.550;2022-08-30T02:03:58;14.75;10.50;7.25
72854;PMS7003;60991;51.278;22.550;2022-08-30T02:05:29;12.00;11.25;8.00
72854;PMS7003;60991;51.278;22.550;2022-08-30T02:06:59;11.75;10.75;7.00
72854;PMS7003;60991;51.278;22.550;2022-08-30T02:08:30;8.75;8.25;6.25
72854;PMS7003;60991;51.278;22.550;2022-08-30T02:10:00;10.50;10.25;7.00
72854;PMS7003;60991;51.278;22.550;2022-08-30T02:11:30;9.00;8.75;7.25
72854;PMS7003;60991;51.278;22.550;2022-08-30T02:13:01;11.75;11.75;8.00
72854;PMS7003;60991;51.278;22.550;2022-08-30T02:14:35;10.50;10.50;8.75
72854;PMS7003;60991;51.278;22.550;2022-08-30T02:16:08;12.50;10.25;8.50
72854;PMS7003;60991;51.278;22.550;2022-08-30T02:17:39;13.50;11.50;7.50
72854;PMS7003;60991;51.278;22.550;2022-08-30T02:19:10;9.75;9.50;7.75
72854;PMS7003;60991;51.278;22.550;2022-08-30T02:20:40;13.00;12.25;8.50
72854;PMS7003;60991;51.278;22.550;2022-08-30T02:22:11;10.00;9.75;8.00
72854;PMS7003;60991;51.278;22.550;2022-08-30T02:23:41;5.50;5.00;4.75
72854;PMS7003;60991;51.278;22.550;2022-08-30T02:25:12;8.75;8.75;7.00
72854;PMS7003;60991;51.278;22.550;2022-08-30T02:26:43;11.00;9.75;8.00
72854;PMS7003;60991;51.278;22.550;2022-08-30T02:28:13;12.50;12.50;9.00
72854;PMS7003;60991;51.278;22.550;2022-08-30T02:29:43;10.50;10.50;7.50
72854;PMS7003;60991;51.278;22.550;2022-08-30T02:31:14;11.00;10.25;7.50
72854;PMS7003;60991;51.278;22.550;2022-08-30T02:32:44;13.50;12.00;7.75
72854;PMS7003;60991;51.278;22.550;2022-08-30T02:34:15;11.25;10.00;7.00
72854;PMS7003;60991;51.278;22.550;2022-08-30T02:35:46;11.25;10.00;8.50
72854;PMS7003;60991;51.278;22.550;2022-08-30T02:37:16;10.00;10.00;7.50
72854;PMS7003;60991;51.278;22.550;2022-08-30T02:38:47;12.75;12.00;10.00
72854;PMS7003;60991;51.278;22.550;2022-08-30T02:40:19;9.75;9.75;7.25
72854;PMS7003;60991;51.278;22.550;2022-08-30T02:41:49;13.75;12.00;8.75
72854;PMS7003;60991;51.278;22.550;2022-08-30T02:43:19;11.00;9.75;7.25
72854;PMS7003;60991;51.278;22.550;2022-08-30T02:44:50;11.25;11.25;8.00
72854;PMS7003;60991;51.278;22.550;2022-08-30T02:46:20;14.50;12.50;9.50
72854;PMS7003;60991;51.278;22.550;2022-08-30T02:47:50;12.00;11.25;8.00
72854;PMS7003;60991;51.278;22.550;2022-08-30T02:49:21;10.75;10.75;8.25
72854;PMS7003;60991;51.278;22.550;2022-08-30T02:50:51;10.75;9.50;6.50
72854;PMS7003;60991;51.278;22.550;2022-08-30T02:52:21;11.00;10.25;8.00
72854;PMS7003;60991;51.278;22.550;2022-08-30T02:53:52;11.50;11.50;8.75
72854;PMS7003;60991;51.278;22.550;2022-08-30T02:55:22;9.00;9.00;7.00
72854;PMS7003;60991;51.278;22.550;2022-08-30T02:56:52;12.75;11.75;9.75
72854;PMS7003;60991;51.278;22.550;2022-08-30T02:58:23;11.00;11.00;7.00
72854;PMS7003;60991;51.278;22.550;2022-08-30T02:59:53;12.75;11.25;8.00
72854;PMS7003;60991;51.278;22.550;2022-08-30T03:01:23;12.25;11.25;8.25
72854;PMS7003;60991;51.278;22.550;2022-08-30T03:02:54;12.50;11.00;8.00
72854;PMS7003;60991;51.278;22.550;2022-08-30T03:04:24;11.00;10.50;6.25
72854;PMS7003;60991;51.278;22.550;2022-08-30T03:05:54;9.75;9.00;7.00
72854;PMS7003;60991;51.278;22.550;2022-08-30T03:07:25;10.00;10.00;8.00
72854;PMS7003;60991;51.278;22.550;2022-08-30T03:08:55;11.25;11.25;9.00
72854;PMS7003;60991;51.278;22.550;2022-08-30T03:10:26;13.75;13.50;9.50
72854;PMS7003;60991;51.278;22.550;2022-08-30T03:11:57;12.75;11.25;7.75
72854;PMS7003;60991;51.278;22.550;2022-08-30T03:13:28;12.25;11.25;7.75
72854;PMS7003;60991;51.278;22.550;2022-08-30T03:14:59;13.25;12.75;10.25
72854;PMS7003;60991;51.278;22.550;2022-08-30T03:16:29;13.50;11.50;8.50
72854;PMS7003;60991;51.278;22.550;2022-08-30T03:17:59;15.75;12.50;9.00
72854;PMS7003;60991;51.278;22.550;2022-08-30T03:19:30;10.00;10.00;7.75
72854;PMS7003;60991;51.278;22.550;2022-08-30T03:21:01;10.00;10.00;8.00
72854;PMS7003;60991;51.278;22.550;2022-08-30T03:22:37;16.25;14.00;9.00
72854;PMS7003;60991;51.278;22.550;2022-08-30T03:24:08;11.50;11.50;9.00
72854;PMS7003;60991;51.278;22.550;2022-08-30T03:25:38;12.75;12.00;7.50
72854;PMS7003;60991;51.278;22.550;2022-08-30T03:27:09;11.00;11.00;8.50
72854;PMS7003;60991;51.278;22.550;2022-08-30T03:28:40;10.75;10.75;9.00
72854;PMS7003;60991;51.278;22.550;2022-08-30T03:30:11;14.75;12.00;9.00
72854;PMS7003;60991;51.278;22.550;2022-08-30T03:31:42;14.75;11.75;9.00
72854;PMS7003;60991;51.278;22.550;2022-08-30T03:33:13;12.75;12.00;9.75
72854;PMS7003;60991;51.278;22.550;2022-08-30T03:34:43;10.25;10.25;8.00
72854;PMS7003;60991;51.278;22.550;2022-08-30T03:36:13;12.75;12.75;8.00
72854;PMS7003;60991;51.278;22.550;2022-08-30T03:37:44;14.00;10.75;7.25
72854;PMS7003;60991;51.278;22.550;2022-08-30T03:39:15;12.75;12.75;8.00
72854;PMS7003;60991;51.278;22.550;2022-08-30T03:40:45;12.25;11.00;8.75
72854;PMS7003;60991;51.278;22.550;2022-08-30T03:42:16;12.00;11.00;8.75
72854;PMS7003;60991;51.278;22.550;2022-08-30T03:43:46;15.00;12.00;9.00
72854;PMS7003;60991;51.278;22.550;2022-08-30T03:45:17;13.25;12.75;9.75
72854;PMS7003;60991;51.278;22.550;2022-08-30T03:46:47;14.00;11.75;8.50
72854;PMS7003;60991;51.278;22.550;2022-08-30T03:48:18;15.50;12.75;9.75
72854;PMS7003;60991;51.278;22.550;2022-08-30T03:49:48;12.00;12.00;9.00
72854;PMS7003;60991;51.278;22.550;2022-08-30T03:51:19;15.25;14.00;10.25
72854;PMS7003;60991;51.278;22.550;2022-08-30T03:52:49;12.00;12.00;8.00
72854;PMS7003;60991;51.278;22.550;2022-08-30T03:54:19;15.00;13.50;9.75
72854;PMS7003;60991;51.278;22.550;2022-08-30T03:55:49;13.50;13.50;9.00
72854;PMS7003;60991;51.278;22.550;2022-08-30T03:57:20;11.00;10.00;8.00
72854;PMS7003;60991;51.278;22.550;2022-08-30T03:58:50;15.00;14.00;9.50
72854;PMS7003;60991;51.278;22.550;2022-08-30T04:00:20;12.75;12.75;9.25
72854;PMS7003;60991;51.278;22.550;2022-08-30T04:01:51;13.75;11.50;9.50
72854;PMS7003;60991;51.278;22.550;2022-08-30T04:03:21;18.75;15.00;10.75
72854;PMS7003;60991;51.278;22.550;2022-08-30T04:04:52;14.75;13.00;9.00
72854;PMS7003;60991;51.278;22.550;2022-08-30T04:06:22;15.25;12.75;10.00
72854;PMS7003;60991;51.278;22.550;2022-08-30T04:07:53;14.00;12.50;9.25
72854;PMS7003;60991;51.278;22.550;2022-08-30T04:09:23;16.00;14.50;9.75
72854;PMS7003;60991;51.278;22.550;2022-08-30T04:10:54;14.00;12.75;9.00
72854;PMS7003;60991;51.278;22.550;2022-08-30T04:12:24;17.25;15.75;10.75
72854;PMS7003;60991;51.278;22.550;2022-08-30T04:13:54;13.00;11.50;8.00
72854;PMS7003;60991;51.278;22.550;2022-08-30T04:15:25;14.25;13.25;10.00
72854;PMS7003;60991;51.278;22.550;2022-08-30T04:16:55;11.75;11.75;9.25
72854;PMS7003;60991;51.278;22.550;2022-08-30T04:18:25;16.00;12.50;9.00
72854;PMS7003;60991;51.278;22.550;2022-08-30T04:19:56;16.25;14.00;9.00
72854;PMS7003;60991;51.278;22.550;2022-08-30T04:21:26;17.50;14.75;10.25
72854;PMS7003;60991;51.278;22.550;2022-08-30T04:22:56;14.75;12.00;9.50
72854;PMS7003;60991;51.278;22.550;2022-08-30T04:24:27;19.25;16.50;11.50
72854;PMS7003;60991;51.278;22.550;2022-08-30T04:25:57;15.50;13.25;10.50
72854;PMS7003;60991;51.278;22.550;2022-08-30T04:27:27;13.25;12.25;8.50
72854;PMS7003;60991;51.278;22.550;2022-08-30T04:28:58;13.75;13.00;10.00
72854;PMS7003;60991;51.278;22.550;2022-08-30T04:30:28;13.75;12.75;10.00
72854;PMS7003;60991;51.278;22.550;2022-08-30T04:31:59;15.75;14.50;11.00
72854;PMS7003;60991;51.278;22.550;2022-08-30T04:33:30;14.75;13.00;10.00
72854;PMS7003;60991;51.278;22.550;2022-08-30T04:35:00;13.75;13.75;10.25
72854;PMS7003;60991;51.278;22.550;2022-08-30T04:36:30;15.50;14.50;9.25
72854;PMS7003;60991;51.278;22.550;2022-08-30T04:38:01;14.50;14.00;10.00
72854;PMS7003;60991;51.278;22.550;2022-08-30T04:39:32;12.75;12.75;10.50
72854;PMS7003;60991;51.278;22.550;2022-08-30T04:41:07;16.00;16.00;10.00
72854;PMS7003;60991;51.278;22.550;2022-08-30T04:42:41;13.50;13.50;9.25
72854;PMS7003;60991;51.278;22.550;2022-08-30T04:44:12;14.75;13.25;9.50
72854;PMS7003;60991;51.278;22.550;2022-08-30T04:45:43;14.75;14.25;10.25
72854;PMS7003;60991;51.278;22.550;2022-08-30T04:47:13;14.00;12.75;10.50
72854;PMS7003;60991;51.278;22.550;2022-08-30T04:48:44;16.00;13.50;10.00
72854;PMS7003;60991;51.278;22.550;2022-08-30T04:50:16;12.00;12.00;10.00
72854;PMS7003;60991;51.278;22.550;2022-08-30T04:51:48;12.25;12.25;9.75
72854;PMS7003;60991;51.278;22.550;2022-08-30T04:53:18;14.00;14.00;9.25
72854;PMS7003;60991;51.278;22.550;2022-08-30T04:54:52;12.00;10.25;8.50
72854;PMS7003;60991;51.278;22.550;2022-08-30T04:56:26;14.50;14.50;9.00
72854;PMS7003;60991;51.278;22.550;2022-08-30T04:57:57;14.75;14.25;10.25
72854;PMS7003;60991;51.278;22.550;2022-08-30T04:59:27;15.00;13.00;9.00
72854;PMS7003;60991;51.278;22.550;2022-08-30T05:00:57;13.00;12.00;10.00
72854;PMS7003;60991;51.278;22.550;2022-08-30T05:02:28;13.25;13.25;11.50
72854;PMS7003;60991;51.278;22.550;2022-08-30T05:03:58;13.00;12.25;8.00
72854;PMS7003;60991;51.278;22.550;2022-08-30T05:05:29;13.75;13.75;9.50
72854;PMS7003;60991;51.278;22.550;2022-08-30T05:06:59;13.50;13.50;11.00
72854;PMS7003;60991;51.278;22.550;2022-08-30T05:08:29;11.25;11.00;9.25
72854;PMS7003;60991;51.278;22.550;2022-08-30T05:10:00;14.00;11.00;8.25
72854;PMS7003;60991;51.278;22.550;2022-08-30T05:11:30;12.75;11.25;8.25
72854;PMS7003;60991;51.278;22.550;2022-08-30T05:13:01;12.75;12.75;10.50
72854;PMS7003;60991;51.278;22.550;2022-08-30T05:14:31;14.50;13.50;9.50
72854;PMS7003;60991;51.278;22.550;2022-08-30T05:16:02;12.00;10.75;9.00
72854;PMS7003;60991;51.278;22.550;2022-08-30T05:17:35;15.25;14.75;9.75
72854;PMS7003;60991;51.278;22.550;2022-08-30T05:19:06;16.25;12.75;10.00
72854;PMS7003;60991;51.278;22.550;2022-08-30T05:20:36;14.25;12.25;10.00
72854;PMS7003;60991;51.278;22.550;2022-08-30T05:22:07;15.75;14.50;11.00
72854;PMS7003;60991;51.278;22.550;2022-08-30T05:23:38;11.75;11.75;8.25
72854;PMS7003;60991;51.278;22.550;2022-08-30T05:25:09;14.25;12.75;8.75
72854;PMS7003;60991;51.278;22.550;2022-08-30T05:26:39;16.75;15.00;10.50
72854;PMS7003;60991;51.278;22.550;2022-08-30T05:28:09;15.25;13.75;8.25
72854;PMS7003;60991;51.278;22.550;2022-08-30T05:29:40;15.50;14.00;9.00
72854;PMS7003;60991;51.278;22.550;2022-08-30T05:31:11;14.00;11.25;9.00
72854;PMS7003;60991;51.278;22.550;2022-08-30T05:32:48;16.00;14.75;10.25
72854;PMS7003;60991;51.278;22.550;2022-08-30T05:34:19;15.00;13.25;8.75
72854;PMS7003;60991;51.278;22.550;2022-08-30T05:35:49;15.00;14.00;10.25
72854;PMS7003;60991;51.278;22.550;2022-08-30T05:37:19;17.50;14.25;10.00
72854;PMS7003;60991;51.278;22.550;2022-08-30T05:38:50;15.00;14.50;10.00
72854;PMS7003;60991;51.278;22.550;2022-08-30T05:40:21;16.00;14.00;9.00
72854;PMS7003;60991;51.278;22.550;2022-08-30T05:41:54;18.00;14.25;10.00
72854;PMS7003;60991;51.278;22.550;2022-08-30T05:43:25;19.25;17.00;12.00
72854;PMS7003;60991;51.278;22.550;2022-08-30T05:44:56;15.75;15.25;10.75
72854;PMS7003;60991;51.278;22.550;2022-08-30T05:46:27;16.25;15.25;11.00
72854;PMS7003;60991;51.278;22.550;2022-08-30T05:47:59;18.50;17.25;12.25
72854;PMS7003;60991;51.278;22.550;2022-08-30T05:49:29;16.50;15.50;11.50
72854;PMS7003;60991;51.278;22.550;2022-08-30T05:51:03;17.75;16.75;12.25
72854;PMS7003;60991;51.278;22.550;2022-08-30T05:52:37;20.00;15.75;10.25
72854;PMS7003;60991;51.278;22.550;2022-08-30T05:54:09;23.75;20.25;12.00
72854;PMS7003;60991;51.278;22.550;2022-08-30T05:55:40;16.75;15.25;10.00
72854;PMS7003;60991;51.278;22.550;2022-08-30T05:57:10;14.00;13.50;9.50
72854;PMS7003;60991;51.278;22.550;2022-08-30T05:58:41;17.00;14.00;11.25
72854;PMS7003;60991;51.278;22.550;2022-08-30T06:00:13;15.00;15.00;12.00
72854;PMS7003;60991;51.278;22.550;2022-08-30T06:01:46;16.25;14.25;10.75
72854;PMS7003;60991;51.278;22.550;2022-08-30T06:03:16;16.25;15.00;11.00
72854;PMS7003;60991;51.278;22.550;2022-08-30T06:04:47;17.50;16.25;11.00
72854;PMS7003;60991;51.278;22.550;2022-08-30T06:06:17;18.00;16.75;11.00
72854;PMS7003;60991;51.278;22.550;2022-08-30T06:07:47;18.00;14.50;9.50
72854;PMS7003;60991;51.278;22.550;2022-08-30T06:09:18;14.75;13.00;10.00
72854;PMS7003;60991;51.278;22.550;2022-08-30T06:10:49;17.00;14.75;10.25
72854;PMS7003;60991;51.278;22.550;2022-08-30T06:12:19;17.00;17.00;11.00
72854;PMS7003;60991;51.278;22.550;2022-08-30T06:13:50;15.75;14.00;10.75
72854;PMS7003;60991;51.278;22.550;2022-08-30T06:15:21;15.50;14.25;10.00
72854;PMS7003;60991;51.278;22.550;2022-08-30T06:16:51;15.00;13.25;10.75
72854;PMS7003;60991;51.278;22.550;2022-08-30T06:18:22;16.25;15.25;11.25
72854;PMS7003;60991;51.278;22.550;2022-08-30T06:19:52;11.00;11.00;7.25
72854;PMS7003;60991;51.278;22.550;2022-08-30T06:21:23;15.75;14.50;12.00
72854;PMS7003;60991;51.278;22.550;2022-08-30T06:22:59;14.75;13.75;10.25
72854;PMS7003;60991;51.278;22.550;2022-08-30T06:24:30;13.00;12.00;9.75
72854;PMS7003;60991;51.278;22.550;2022-08-30T06:26:04;18.75;15.50;11.00
72854;PMS7003;60991;51.278;22.550;2022-08-30T06:27:35;16.25;14.25;10.25
72854;PMS7003;60991;51.278;22.550;2022-08-30T06:29:05;15.25;15.25;12.00
72854;PMS7003;60991;51.278;22.550;2022-08-30T06:30:38;16.75;16.00;10.50
72854;PMS7003;60991;51.278;22.550;2022-08-30T06:32:10;17.50;15.25;12.00
72854;PMS7003;60991;51.278;22.550;2022-08-30T06:33:40;18.75;18.00;12.25
72854;PMS7003;60991;51.278;22.550;2022-08-30T06:35:11;16.50;14.75;10.00
72854;PMS7003;60991;51.278;22.550;2022-08-30T06:36:42;17.75;17.75;12.25
72854;PMS7003;60991;51.278;22.550;2022-08-30T06:38:12;19.00;16.25;10.75
72854;PMS7003;60991;51.278;22.550;2022-08-30T06:39:42;14.25;14.25;10.00
72854;PMS7003;60991;51.278;22.550;2022-08-30T06:41:14;18.75;16.75;11.50
72854;PMS7003;60991;51.278;22.550;2022-08-30T06:42:46;16.75;15.25;11.25
72854;PMS7003;60991;51.278;22.550;2022-08-30T06:44:17;17.50;15.50;11.50
72854;PMS7003;60991;51.278;22.550;2022-08-30T06:45:47;21.00;19.50;13.00
72854;PMS7003;60991;51.278;22.550;2022-08-30T06:47:17;17.50;17.00;12.50
72854;PMS7003;60991;51.278;22.550;2022-08-30T06:48:48;17.00;15.75;10.75
72854;PMS7003;60991;51.278;22.550;2022-08-30T06:50:18;18.50;15.50;11.25
72854;PMS7003;60991;51.278;22.550;2022-08-30T06:51:49;20.50;20.00;14.00
72854;PMS7003;60991;51.278;22.550;2022-08-30T06:53:19;16.75;14.00;11.00
72854;PMS7003;60991;51.278;22.550;2022-08-30T06:54:49;15.75;13.25;10.00
72854;PMS7003;60991;51.278;22.550;2022-08-30T06:56:20;19.50;19.50;12.00
72854;PMS7003;60991;51.278;22.550;2022-08-30T06:57:51;17.00;16.75;12.75
72854;PMS7003;60991;51.278;22.550;2022-08-30T06:59:22;15.00;15.00;9.50
72854;PMS7003;60991;51.278;22.550;2022-08-30T07:00:52;19.25;18.75;12.50
72854;PMS7003;60991;51.278;22.550;2022-08-30T07:02:23;18.75;17.00;12.50
72854;PMS7003;60991;51.278;22.550;2022-08-30T07:03:53;19.75;19.75;13.75
72854;PMS7003;60991;51.278;22.550;2022-08-30T07:05:24;22.75;21.75;13.75
72854;PMS7003;60991;51.278;22.550;2022-08-30T07:06:55;21.75;20.25;14.00
72854;PMS7003;60991;51.278;22.550;2022-08-30T07:08:25;21.50;21.25;12.75
72854;PMS7003;60991;51.278;22.550;2022-08-30T07:09:55;21.25;19.50;13.00
72854;PMS7003;60991;51.278;22.550;2022-08-30T07:11:27;20.00;20.00;12.50
72854;PMS7003;60991;51.278;22.550;2022-08-30T07:13:04;16.00;16.00;12.50
72854;PMS7003;60991;51.278;22.550;2022-08-30T07:14:35;22.25;21.50;13.50
72854;PMS7003;60991;51.278;22.550;2022-08-30T07:16:10;23.00;19.25;12.75
72854;PMS7003;60991;51.278;22.550;2022-08-30T07:17:42;22.50;19.00;14.00
72854;PMS7003;60991;51.278;22.550;2022-08-30T07:19:13;31.25;26.25;15.50
72854;PMS7003;60991;51.278;22.550;2022-08-30T07:20:43;25.00;24.50;17.00
72854;PMS7003;60991;51.278;22.550;2022-08-30T07:22:13;24.25;21.25;14.25
72854;PMS7003;60991;51.278;22.550;2022-08-30T07:23:44;23.75;22.25;15.00
72854;PMS7003;60991;51.278;22.550;2022-08-30T07:25:16;25.75;24.50;13.75
72854;PMS7003;60991;51.278;22.550;2022-08-30T07:26:47;22.25;19.75;13.25
72854;PMS7003;60991;51.278;22.550;2022-08-30T07:28:19;23.25;22.75;13.75
72854;PMS7003;60991;51.278;22.550;2022-08-30T07:29:49;19.25;19.25;11.25
72854;PMS7003;60991;51.278;22.550;2022-08-30T07:31:20;22.50;21.75;12.75
72854;PMS7003;60991;51.278;22.550;2022-08-30T07:32:50;23.25;21.00;12.75
72854;PMS7003;60991;51.278;22.550;2022-08-30T07:34:20;16.50;13.50;9.00
72854;PMS7003;60991;51.278;22.550;2022-08-30T07:35:51;17.25;17.25;12.50
72854;PMS7003;60991;51.278;22.550;2022-08-30T07:37:21;19.00;17.00;11.00
72854;PMS7003;60991;51.278;22.550;2022-08-30T07:38:51;19.25;19.25;12.75
72854;PMS7003;60991;51.278;22.550;2022-08-30T07:40:22;20.25;18.25;12.25
72854;PMS7003;60991;51.278;22.550;2022-08-30T07:41:53;17.25;17.00;11.25
72854;PMS7003;60991;51.278;22.550;2022-08-30T07:43:23;18.00;17.75;12.50
72854;PMS7003;60991;51.278;22.550;2022-08-30T07:44:54;19.00;16.75;11.75
72854;PMS7003;60991;51.278;22.550;2022-08-30T07:46:24;20.75;17.50;11.25
72854;PMS7003;60991;51.278;22.550;2022-08-30T07:47:54;20.25;19.50;12.25
72854;PMS7003;60991;51.278;22.550;2022-08-30T07:49:25;21.50;18.00;12.25
72854;PMS7003;60991;51.278;22.550;2022-08-30T07:50:55;20.25;16.25;10.75
72854;PMS7003;60991;51.278;22.550;2022-08-30T07:52:26;18.00;17.00;11.00
72854;PMS7003;60991;51.278;22.550;2022-08-30T07:53:57;17.50;17.00;11.25
72854;PMS7003;60991;51.278;22.550;2022-08-30T07:55:27;15.50;13.50;9.75
72854;PMS7003;60991;51.278;22.550;2022-08-30T07:56:58;16.25;15.50;12.50
72854;PMS7003;60991;51.278;22.550;2022-08-30T07:58:28;17.00;15.75;10.00
72854;PMS7003;60991;51.278;22.550;2022-08-30T07:59:59;23.00;19.50;11.50
72854;PMS7003;60991;51.278;22.550;2022-08-30T08:01:29;12.75;12.75;8.00
72854;PMS7003;60991;51.278;22.550;2022-08-30T08:03:04;14.00;13.25;10.00
72854;PMS7003;60991;51.278;22.550;2022-08-30T08:04:35;14.25;12.25;9.00
72854;PMS7003;60991;51.278;22.550;2022-08-30T08:06:06;12.75;12.75;8.25
72854;PMS7003;60991;51.278;22.550;2022-08-30T08:07:37;11.00;11.00;7.00
72854;PMS7003;60991;51.278;22.550;2022-08-30T08:09:08;14.75;14.00;9.00
72854;PMS7003;60991;51.278;22.550;2022-08-30T08:10:39;14.50;11.50;8.25
72854;PMS7003;60991;51.278;22.550;2022-08-30T08:12:10;12.50;10.25;7.25
72854;PMS7003;60991;51.278;22.550;2022-08-30T08:13:41;10.00;9.75;7.25
72854;PMS7003;60991;51.278;22.550;2022-08-30T08:15:12;10.25;10.25;8.25
72854;PMS7003;60991;51.278;22.550;2022-08-30T08:16:42;10.75;10.75;7.75
72854;PMS7003;60991;51.278;22.550;2022-08-30T08:18:13;11.00;10.25;6.50
72854;PMS7003;60991;51.278;22.550;2022-08-30T08:19:43;9.25;8.25;7.75
72854;PMS7003;60991;51.278;22.550;2022-08-30T08:21:13;9.50;9.00;7.00
72854;PMS7003;60991;51.278;22.550;2022-08-30T08:22:43;14.75;14.00;9.00
72854;PMS7003;60991;51.278;22.550;2022-08-30T08:24:14;14.25;12.50;9.00
72854;PMS7003;60991;51.278;22.550;2022-08-30T08:25:44;13.75;11.50;8.75
72854;PMS7003;60991;51.278;22.550;2022-08-30T08:27:15;12.75;11.50;8.50
72854;PMS7003;60991;51.278;22.550;2022-08-30T08:28:45;10.00;9.75;6.75
72854;PMS7003;60991;51.278;22.550;2022-08-30T08:30:17;10.25;10.25;7.25
72854;PMS7003;60991;51.278;22.550;2022-08-30T08:31:48;11.75;11.75;8.00